sensor_id;sensor_type;location;lat;lon;timestamp;pressure;altitude;pressure_sealevel;temperature;humidity
69955;BME280;57279;55.912;37.490;2022-11-11T00:01:05;99579.72;;;7.13;84.35
69955;BME280;57279;55.912;37.490;2022-11-11T00:03:53;99579.97;;;7.11;84.53
69955;BME280;57279;55.912;37.490;2022-11-11T00:06:38;99574.94;;;7.15;84.40
69955;BME280;57279;55.912;37.490;2022-11-11T00:09:22;99579.03;;;7.17;84.15
69955;BME280;57279;55.912;37.490;2022-11-11T00:12:07;99577.97;;;7.18;84.20
69955;BME280;57279;55.912;37.490;2022-11-11T00:14:51;99578.91;;;7.12;84.29
69955;BME280;57279;55.912;37.490;2022-11-11T00:17:35;99576.25;;;7.24;84.03
69955;BME280;57279;55.912;37.490;2022-11-11T00:20:38;99573.06;;;7.15;84.29
69955;BME280;57279;55.912;37.490;2022-11-11T00:23:42;99575.06;;;7.20;84.43
69955;BME280;57279;55.912;37.490;2022-11-11T00:26:45;99574.94;;;7.15;84.07
69955;BME280;57279;55.912;37.490;2022-11-11T00:29:29;99573.19;;;7.09;84.71
69955;BME280;57279;55.912;37.490;2022-11-11T00:32:13;99569.69;;;7.20;84.79
69955;BME280;57279;55.912;37.490;2022-11-11T00:35:07;99576.81;;;7.26;84.48
69955;BME280;57279;55.912;37.490;2022-11-11T00:38:12;99568.63;;;7.33;84.50
69955;BME280;57279;55.912;37.490;2022-11-11T00:41:18;99558.03;;;7.26;84.29
69955;BME280;57279;55.912;37.490;2022-11-11T00:44:03;99560.94;;;7.24;84.13
69955;BME280;57279;55.912;37.490;2022-11-11T00:46:47;99561.53;;;7.27;84.14
69955;BME280;57279;55.912;37.490;2022-11-11T00:49:50;99559.31;;;7.35;84.22
69955;BME280;57279;55.912;37.490;2022-11-11T00:52:53;99563.25;;;7.33;84.12
69955;BME280;57279;55.912;37.490;2022-11-11T00:55:37;99563.38;;;7.38;84.20
69955;BME280;57279;55.912;37.490;2022-11-11T00:58:23;99554.88;;;7.29;84.02
69955;BME280;57279;55.912;37.490;2022-11-11T01:01:07;99559.41;;;7.29;84.45
69955;BME280;57279;55.912;37.490;2022-11-11T01:03:51;99555.09;;;7.28;84.57
69955;BME280;57279;55.912;37.490;2022-11-11T01:06:36;99561.75;;;7.25;84.34
69955;BME280;57279;55.912;37.490;2022-11-11T01:09:20;99559.91;;;7.26;84.42
69955;BME280;57279;55.912;37.490;2022-11-11T01:12:04;99560.00;;;7.31;84.19
69955;BME280;57279;55.912;37.490;2022-11-11T01:14:48;99561.28;;;7.16;84.41
69955;BME280;57279;55.912;37.490;2022-11-11T01:17:32;99566.44;;;7.30;84.42
69955;BME280;57279;55.912;37.490;2022-11-11T01:20:16;99557.66;;;7.34;84.40
69955;BME280;57279;55.912;37.490;2022-11-11T01:23:00;99556.72;;;7.29;84.06
69955;BME280;57279;55.912;37.490;2022-11-11T01:25:44;99566.44;;;7.30;84.11
69955;BME280;57279;55.912;37.490;2022-11-11T01:28:30;99551.13;;;7.30;84.27
69955;BME280;57279;55.912;37.490;2022-11-11T01:31:15;99555.78;;;7.35;84.61
69955;BME280;57279;55.912;37.490;2022-11-11T01:33:59;99558.59;;;7.40;84.23
69955;BME280;57279;55.912;37.490;2022-11-11T01:36:44;99559.41;;;7.40;84.20
69955;BME280;57279;55.912;37.490;2022-11-11T01:39:28;99559.19;;;7.30;84.12
69955;BME280;57279;55.912;37.490;2022-11-11T01:42:12;99560.94;;;7.36;84.21
69955;BME280;57279;55.912;37.490;2022-11-11T01:44:56;99561.06;;;7.30;84.00
69955;BME280;57279;55.912;37.490;2022-11-11T01:47:40;99566.78;;;7.33;84.16
69955;BME280;57279;55.912;37.490;2022-11-11T01:50:44;99564.91;;;7.34;84.03
69955;BME280;57279;55.912;37.490;2022-11-11T01:53:28;99563.63;;;7.36;84.14
69955;BME280;57279;55.912;37.490;2022-11-11T01:56:13;99557.56;;;7.29;84.06
69955;BME280;57279;55.912;37.490;2022-11-11T01:59:02;99553.00;;;7.30;84.20
69955;BME280;57279;55.912;37.490;2022-11-11T02:01:47;99555.22;;;7.33;84.25
69955;BME280;57279;55.912;37.490;2022-11-11T02:04:32;99561.06;;;7.30;84.36
69955;BME280;57279;55.912;37.490;2022-11-11T02:07:35;99559.31;;;7.35;84.29
69955;BME280;57279;55.912;37.490;2022-11-11T02:10:22;99565.47;;;7.48;84.00
69955;BME280;57279;55.912;37.490;2022-11-11T02:13:12;99566.88;;;7.38;84.19
69955;BME280;57279;55.912;37.490;2022-11-11T02:16:15;99563.03;;;7.34;84.29
69955;BME280;57279;55.912;37.490;2022-11-11T02:19:00;99566.56;;;7.47;84.33
69955;BME280;57279;55.912;37.490;2022-11-11T02:21:52;99555.91;;;7.52;84.25
69955;BME280;57279;55.912;37.490;2022-11-11T02:24:40;99557.66;;;7.58;83.75
69955;BME280;57279;55.912;37.490;2022-11-11T02:27:25;99556.63;;;7.47;84.12
69955;BME280;57279;55.912;37.490;2022-11-11T02:30:12;99550.44;;;7.47;84.24
69955;BME280;57279;55.912;37.490;2022-11-11T02:32:59;99545.06;;;7.47;83.98
69955;BME280;57279;55.912;37.490;2022-11-11T02:35:46;99551.97;;;7.42;84.02
69955;BME280;57279;55.912;37.490;2022-11-11T02:38:38;99548.44;;;7.42;83.95
69955;BME280;57279;55.912;37.490;2022-11-11T02:41:22;99555.91;;;7.40;84.42
69955;BME280;57279;55.912;37.490;2022-11-11T02:44:25;99561.19;;;7.47;83.99
69955;BME280;57279;55.912;37.490;2022-11-11T02:47:10;99569.59;;;7.50;83.85
69955;BME280;57279;55.912;37.490;2022-11-11T02:49:54;99562.81;;;7.48;83.87
69955;BME280;57279;55.912;37.490;2022-11-11T02:52:38;99566.06;;;7.38;83.96
69955;BME280;57279;55.912;37.490;2022-11-11T02:55:23;99563.41;;;7.26;84.46
69955;BME280;57279;55.912;37.490;2022-11-11T02:58:07;99559.91;;;7.26;84.85
69955;BME280;57279;55.912;37.490;2022-11-11T03:00:52;99561.16;;;7.35;84.99
69955;BME280;57279;55.912;37.490;2022-11-11T03:03:36;99558.25;;;7.36;84.69
69955;BME280;57279;55.912;37.490;2022-11-11T03:06:20;99558.50;;;7.47;84.72
69955;BME280;57279;55.912;37.490;2022-11-11T03:09:05;99559.53;;;7.34;84.56
69955;BME280;57279;55.912;37.490;2022-11-11T03:11:49;99559.63;;;7.27;84.82
69955;BME280;57279;55.912;37.490;2022-11-11T03:14:33;99551.00;;;7.25;84.95
69955;BME280;57279;55.912;37.490;2022-11-11T03:17:18;99554.03;;;7.29;85.00
69955;BME280;57279;55.912;37.490;2022-11-11T03:20:21;99551.59;;;7.39;84.87
69955;BME280;57279;55.912;37.490;2022-11-11T03:23:24;99552.53;;;7.33;84.61
69955;BME280;57279;55.912;37.490;2022-11-11T03:26:08;99564.78;;;7.17;85.28
69955;BME280;57279;55.912;37.490;2022-11-11T03:28:53;99561.88;;;7.18;85.23
69955;BME280;57279;55.912;37.490;2022-11-11T03:31:38;99560.34;;;7.11;85.44
69955;BME280;57279;55.912;37.490;2022-11-11T03:34:22;99569.56;;;7.15;85.59
69955;BME280;57279;55.912;37.490;2022-11-11T03:37:08;99560.34;;;7.22;85.37
69955;BME280;57279;55.912;37.490;2022-11-11T03:40:13;99567.94;;;7.37;85.21
69955;BME280;57279;55.912;37.490;2022-11-11T03:42:57;99570.28;;;7.34;84.72
69955;BME280;57279;55.912;37.490;2022-11-11T03:45:42;99572.38;;;7.43;84.67
69955;BME280;57279;55.912;37.490;2022-11-11T03:48:29;99567.00;;;7.43;84.39
69955;BME280;57279;55.912;37.490;2022-11-11T03:51:14;99566.31;;;7.36;84.37
69955;BME280;57279;55.912;37.490;2022-11-11T03:53:58;99566.53;;;7.35;84.63
69955;BME280;57279;55.912;37.490;2022-11-11T03:56:43;99571.69;;;7.24;84.77
69955;BME280;57279;55.912;37.490;2022-11-11T03:59:27;99572.63;;;7.30;85.05
69955;BME280;57279;55.912;37.490;2022-11-11T04:02:12;99577.03;;;7.24;85.13
69955;BME280;57279;55.912;37.490;2022-11-11T04:05:15;99574.81;;;7.21;85.06
69955;BME280;57279;55.912;37.490;2022-11-11T04:08:19;99579.63;;;7.31;85.36
69955;BME280;57279;55.912;37.490;2022-11-11T04:14:15;99581.84;;;7.34;84.68
69955;BME280;57279;55.912;37.490;2022-11-11T04:17:19;99579.50;;;7.38;84.60
69955;BME280;57279;55.912;37.490;2022-11-11T04:20:03;99583.00;;;7.38;84.67
69955;BME280;57279;55.912;37.490;2022-11-11T04:23:06;99597.00;;;7.40;84.75
69955;BME280;57279;55.912;37.490;2022-11-11T04:25:50;99584.28;;;7.48;84.60
69955;BME280;57279;55.912;37.490;2022-11-11T04:28:36;99596.91;;;7.35;84.35
69955;BME280;57279;55.912;37.490;2022-11-11T04:31:39;99595.97;;;7.30;84.82
69955;BME280;57279;55.912;37.490;2022-11-11T04:34:48;99586.75;;;7.26;84.70
69955;BME280;57279;55.912;37.490;2022-11-11T04:37:35;99598.53;;;7.24;84.77
69955;BME280;57279;55.912;37.490;2022-11-11T04:40:19;99598.31;;;7.26;85.21
69955;BME280;57279;55.912;37.490;2022-11-11T04:43:22;99611.38;;;7.22;85.06
69955;BME280;57279;55.912;37.490;2022-11-11T04:46:06;99603.22;;;7.29;85.11
69955;BME280;57279;55.912;37.490;2022-11-11T04:48:51;99604.25;;;7.28;85.15
69955;BME280;57279;55.912;37.490;2022-11-11T04:51:35;99603.69;;;7.38;85.09
69955;BME280;57279;55.912;37.490;2022-11-11T04:54:38;99611.28;;;7.41;84.87
69955;BME280;57279;55.912;37.490;2022-11-11T04:57:43;99607.44;;;7.37;84.78
69955;BME280;57279;55.912;37.490;2022-11-11T05:00:28;99607.44;;;7.37;84.81
69955;BME280;57279;55.912;37.490;2022-11-11T05:03:13;99606.59;;;7.36;84.86
69955;BME280;57279;55.912;37.490;2022-11-11T05:06:01;99611.28;;;7.41;84.86
69955;BME280;57279;55.912;37.490;2022-11-11T05:09:05;99611.97;;;7.48;84.55
69955;BME280;57279;55.912;37.490;2022-11-11T05:11:49;99614.06;;;7.46;84.78
69955;BME280;57279;55.912;37.490;2022-11-11T05:14:33;99614.66;;;7.36;84.59
69955;BME280;57279;55.912;37.490;2022-11-11T05:17:36;99618.06;;;7.32;84.95
69955;BME280;57279;55.912;37.490;2022-11-11T05:20:40;99617.94;;;7.38;85.08
69955;BME280;57279;55.912;37.490;2022-11-11T05:23:42;99618.97;;;7.26;84.93
69955;BME280;57279;55.912;37.490;2022-11-11T05:26:45;99616.50;;;7.12;85.72
69955;BME280;57279;55.912;37.490;2022-11-11T05:29:29;99616.84;;;7.16;85.77
69955;BME280;57279;55.912;37.490;2022-11-11T05:32:18;99613.56;;;7.14;86.03
69955;BME280;57279;55.912;37.490;2022-11-11T05:35:03;99625.75;;;7.16;86.03
69955;BME280;57279;55.912;37.490;2022-11-11T05:37:47;99629.16;;;7.23;86.13
69955;BME280;57279;55.912;37.490;2022-11-11T05:40:54;99624.44;;;7.19;86.13
69955;BME280;57279;55.912;37.490;2022-11-11T05:43:38;99628.31;;;7.23;86.15
69955;BME280;57279;55.912;37.490;2022-11-11T05:46:22;99622.34;;;7.21;85.83
69955;BME280;57279;55.912;37.490;2022-11-11T05:49:06;99633.22;;;7.14;86.00
69955;BME280;57279;55.912;37.490;2022-11-11T05:52:00;99628.88;;;7.25;86.12
69955;BME280;57279;55.912;37.490;2022-11-11T05:54:44;99629.16;;;7.23;85.61
69955;BME280;57279;55.912;37.490;2022-11-11T05:57:29;99631.94;;;7.29;85.46
69955;BME280;57279;55.912;37.490;2022-11-11T06:00:13;99640.56;;;7.19;85.65
69955;BME280;57279;55.912;37.490;2022-11-11T06:03:02;99639.97;;;7.17;85.54
69955;BME280;57279;55.912;37.490;2022-11-11T06:05:47;99634.25;;;7.25;85.55
69955;BME280;57279;55.912;37.490;2022-11-11T06:08:31;99640.34;;;7.20;85.69
69955;BME280;57279;55.912;37.490;2022-11-11T06:11:15;99660.16;;;7.19;85.72
69955;BME280;57279;55.912;37.490;2022-11-11T06:13:59;99665.78;;;7.18;85.97
69955;BME280;57279;55.912;37.490;2022-11-11T06:16:43;99653.03;;;7.13;85.86
69955;BME280;57279;55.912;37.490;2022-11-11T06:19:28;99651.31;;;7.31;85.77
69955;BME280;57279;55.912;37.490;2022-11-11T06:22:12;99656.69;;;7.31;85.40
69955;BME280;57279;55.912;37.490;2022-11-11T06:24:56;99653.78;;;7.32;85.36
69955;BME280;57279;55.912;37.490;2022-11-11T06:28:00;99662.78;;;7.26;85.27
69955;BME280;57279;55.912;37.490;2022-11-11T06:30:44;99662.09;;;7.42;85.54
69955;BME280;57279;55.912;37.490;2022-11-11T06:33:29;99658.22;;;7.38;85.26
69955;BME280;57279;55.912;37.490;2022-11-11T06:36:16;99662.06;;;7.31;85.29
69955;BME280;57279;55.912;37.490;2022-11-11T06:39:01;99657.16;;;7.28;85.38
69955;BME280;57279;55.912;37.490;2022-11-11T06:41:45;99669.22;;;7.49;85.11
69955;BME280;57279;55.912;37.490;2022-11-11T06:44:30;99670.75;;;7.56;84.78
69955;BME280;57279;55.912;37.490;2022-11-11T06:47:14;99666.06;;;7.52;84.71
69955;BME280;57279;55.912;37.490;2022-11-11T06:49:58;99665.97;;;7.58;84.68
69955;BME280;57279;55.912;37.490;2022-11-11T06:52:43;99670.41;;;7.64;84.31
69955;BME280;57279;55.912;37.490;2022-11-11T06:55:27;99671.34;;;7.58;84.14
69955;BME280;57279;55.912;37.490;2022-11-11T06:58:14;99669.38;;;7.66;84.11
69955;BME280;57279;55.912;37.490;2022-11-11T07:01:03;99666.66;;;7.54;84.09
69955;BME280;57279;55.912;37.490;2022-11-11T07:03:47;99664.66;;;7.37;84.59
69955;BME280;57279;55.912;37.490;2022-11-11T07:06:32;99673.31;;;7.51;84.91
69955;BME280;57279;55.912;37.490;2022-11-11T07:09:16;99674.47;;;7.55;84.65
69955;BME280;57279;55.912;37.490;2022-11-11T07:12:00;99668.28;;;7.55;84.48
69955;BME280;57279;55.912;37.490;2022-11-11T07:14:44;99671.78;;;7.43;84.70
69955;BME280;57279;55.912;37.490;2022-11-11T07:17:29;99677.16;;;7.55;84.86
69955;BME280;57279;55.912;37.490;2022-11-11T07:20:13;99672.38;;;7.57;84.54
69955;BME280;57279;55.912;37.490;2022-11-11T07:22:58;99670.28;;;7.59;84.41
69955;BME280;57279;55.912;37.490;2022-11-11T07:25:42;99677.75;;;7.57;84.31
69955;BME280;57279;55.912;37.490;2022-11-11T07:28:27;99688.50;;;7.57;84.33
69955;BME280;57279;55.912;37.490;2022-11-11T07:31:11;99691.44;;;7.56;84.35
69955;BME280;57279;55.912;37.490;2022-11-11T07:33:55;99689.56;;;7.56;84.61
69955;BME280;57279;55.912;37.490;2022-11-11T07:36:39;99694.13;;;7.56;84.50
69955;BME280;57279;55.912;37.490;2022-11-11T07:39:23;99700.19;;;7.51;84.44
69955;BME280;57279;55.912;37.490;2022-11-11T07:42:08;99695.97;;;7.55;84.61
69955;BME280;57279;55.912;37.490;2022-11-11T07:44:52;99693.66;;;7.59;84.40
69955;BME280;57279;55.912;37.490;2022-11-11T07:47:36;99704.03;;;7.67;84.04
69955;BME280;57279;55.912;37.490;2022-11-11T07:50:20;99703.38;;;7.72;84.11
69955;BME280;57279;55.912;37.490;2022-11-11T07:53:05;99704.88;;;7.68;83.74
69955;BME280;57279;55.912;37.490;2022-11-11T07:55:49;99706.50;;;7.57;84.00
69955;BME280;57279;55.912;37.490;2022-11-11T07:58:33;99708.72;;;7.60;84.36
69955;BME280;57279;55.912;37.490;2022-11-11T08:01:17;99712.69;;;7.57;84.34
69955;BME280;57279;55.912;37.490;2022-11-11T08:04:02;99705.31;;;7.53;84.48
69955;BME280;57279;55.912;37.490;2022-11-11T08:06:46;99718.59;;;7.36;85.04
69955;BME280;57279;55.912;37.490;2022-11-11T08:09:30;99704.38;;;7.47;84.99
69955;BME280;57279;55.912;37.490;2022-11-11T08:12:14;99707.22;;;7.52;84.72
69955;BME280;57279;55.912;37.490;2022-11-11T08:15:17;99705.31;;;7.41;84.55
69955;BME280;57279;55.912;37.490;2022-11-11T08:18:01;99693.06;;;7.45;84.73
69955;BME280;57279;55.912;37.490;2022-11-11T08:20:45;99691.19;;;7.46;84.97
69955;BME280;57279;55.912;37.490;2022-11-11T08:23:30;99685.44;;;7.42;84.80
69955;BME280;57279;55.912;37.490;2022-11-11T08:26:19;99676.50;;;7.60;84.72
69955;BME280;57279;55.912;37.490;2022-11-11T08:29:04;99684.19;;;7.80;84.50
69955;BME280;57279;55.912;37.490;2022-11-11T08:31:51;99686.66;;;7.81;83.88
69955;BME280;57279;55.912;37.490;2022-11-11T08:34:35;99679.41;;;7.82;83.88
69955;BME280;57279;55.912;37.490;2022-11-11T08:37:19;99677.56;;;7.82;83.88
69955;BME280;57279;55.912;37.490;2022-11-11T08:40:04;99673.22;;;7.93;83.59
69955;BME280;57279;55.912;37.490;2022-11-11T08:42:49;99672.28;;;7.88;83.58
69955;BME280;57279;55.912;37.490;2022-11-11T08:45:33;99672.63;;;7.91;83.42
69955;BME280;57279;55.912;37.490;2022-11-11T08:48:17;99680.81;;;7.85;83.32
69955;BME280;57279;55.912;37.490;2022-11-11T08:51:01;99684.44;;;7.90;83.06
69955;BME280;57279;55.912;37.490;2022-11-11T08:53:46;99681.41;;;7.87;83.17
69955;BME280;57279;55.912;37.490;2022-11-11T08:56:30;99676.13;;;7.92;83.06
69955;BME280;57279;55.912;37.490;2022-11-11T08:59:14;99678.47;;;8.00;82.81
69955;BME280;57279;55.912;37.490;2022-11-11T09:01:59;99681.03;;;7.95;82.54
69955;BME280;57279;55.912;37.490;2022-11-11T09:04:43;99686.66;;;7.81;82.91
69955;BME280;57279;55.912;37.490;2022-11-11T09:07:28;99684.91;;;7.75;83.07
69955;BME280;57279;55.912;37.490;2022-11-11T09:10:12;99686.19;;;7.85;82.67
69955;BME280;57279;55.912;37.490;2022-11-11T09:12:57;99704.31;;;7.77;82.83
69955;BME280;57279;55.912;37.490;2022-11-11T09:15:42;99689.69;;;7.73;83.00
69955;BME280;57279;55.912;37.490;2022-11-11T09:18:26;99697.28;;;7.76;83.19
69955;BME280;57279;55.912;37.490;2022-11-11T09:21:11;99703.59;;;7.82;82.98
69955;BME280;57279;55.912;37.490;2022-11-11T09:23:55;99706.88;;;7.84;82.93
69955;BME280;57279;55.912;37.490;2022-11-11T09:26:39;99702.31;;;7.73;82.78
69955;BME280;57279;55.912;37.490;2022-11-11T09:29:23;99705.25;;;7.83;82.91
69955;BME280;57279;55.912;37.490;2022-11-11T09:32:08;99697.41;;;7.81;82.95
69955;BME280;57279;55.912;37.490;2022-11-11T09:34:52;99705.47;;;7.81;82.79
69955;BME280;57279;55.912;37.490;2022-11-11T09:37:38;99711.06;;;7.92;82.84
69955;BME280;57279;55.912;37.490;2022-11-11T09:40:24;99703.13;;;8.09;82.50
69955;BME280;57279;55.912;37.490;2022-11-11T09:46:22;99717.38;;;7.97;82.36
69955;BME280;57279;55.912;37.490;2022-11-11T09:52:22;99722.31;;;8.12;82.28
69955;BME280;57279;55.912;37.490;2022-11-11T09:55:54;99717.66;;;7.96;82.17
69955;BME280;57279;55.912;37.490;2022-11-11T09:58:34;99715.41;;;8.05;82.39
69955;BME280;57279;55.912;37.490;2022-11-11T10:01:28;99712.50;;;7.94;82.70
69955;BME280;57279;55.912;37.490;2022-11-11T10:04:34;99723.84;;;7.96;82.60
69955;BME280;57279;55.912;37.490;2022-11-11T10:13:35;99729.44;;;8.07;82.71
69955;BME280;57279;55.912;37.490;2022-11-11T10:16:53;99734.22;;;8.16;82.25
69955;BME280;57279;55.912;37.490;2022-11-11T10:19:51;99736.44;;;7.84;82.85
69955;BME280;57279;55.912;37.490;2022-11-11T10:22:42;99737.25;;;7.73;83.35
69955;BME280;57279;55.912;37.490;2022-11-11T10:25:26;99738.88;;;7.74;83.68
69955;BME280;57279;55.912;37.490;2022-11-11T10:28:16;99739.25;;;7.77;83.63
69955;BME280;57279;55.912;37.490;2022-11-11T10:31:04;99745.44;;;7.90;83.74
69955;BME280;57279;55.912;37.490;2022-11-11T10:34:05;99747.31;;;7.89;83.55
69955;BME280;57279;55.912;37.490;2022-11-11T10:36:53;99751.31;;;7.87;83.66
69955;BME280;57279;55.912;37.490;2022-11-11T10:42:41;99751.03;;;7.76;84.19
69955;BME280;57279;55.912;37.490;2022-11-11T10:45:38;99756.69;;;7.87;83.85
69955;BME280;57279;55.912;37.490;2022-11-11T10:48:50;99753.41;;;7.85;83.99
69955;BME280;57279;55.912;37.490;2022-11-11T10:51:41;99757.94;;;7.84;84.04
69955;BME280;57279;55.912;37.490;2022-11-11T10:54:33;99755.25;;;7.84;84.05
69955;BME280;57279;55.912;37.490;2022-11-11T10:57:32;99753.72;;;7.76;84.53
69955;BME280;57279;55.912;37.490;2022-11-11T11:00:19;99762.13;;;7.68;84.69
69955;BME280;57279;55.912;37.490;2022-11-11T11:03:12;99752.91;;;7.76;84.75
69955;BME280;57279;55.912;37.490;2022-11-11T11:06:19;99762.06;;;7.87;84.40
69955;BME280;57279;55.912;37.490;2022-11-11T11:09:25;99767.44;;;8.10;83.91
69955;BME280;57279;55.912;37.490;2022-11-11T11:12:46;99768.38;;;8.04;83.50
69955;BME280;57279;55.912;37.490;2022-11-11T11:15:36;99775.97;;;8.07;83.85
69955;BME280;57279;55.912;37.490;2022-11-11T11:18:22;99771.53;;;8.13;83.94
69955;BME280;57279;55.912;37.490;2022-11-11T11:21:07;99781.34;;;8.07;83.71
69955;BME280;57279;55.912;37.490;2022-11-11T11:23:51;99785.09;;;8.18;83.87
69955;BME280;57279;55.912;37.490;2022-11-11T11:26:43;99777.47;;;8.03;83.76
69955;BME280;57279;55.912;37.490;2022-11-11T11:29:36;99787.50;;;7.84;84.61
69955;BME280;57279;55.912;37.490;2022-11-11T11:32:29;99792.81;;;7.91;84.76
69955;BME280;57279;55.912;37.490;2022-11-11T11:38:15;99783.00;;;8.08;84.54
69955;BME280;57279;55.912;37.490;2022-11-11T11:40:59;99784.16;;;8.00;85.01
69955;BME280;57279;55.912;37.490;2022-11-11T11:43:44;99785.53;;;7.91;85.10
69955;BME280;57279;55.912;37.490;2022-11-11T11:46:36;99774.22;;;8.01;85.39
69955;BME280;57279;55.912;37.490;2022-11-11T11:55:21;99769.06;;;7.99;85.50
69955;BME280;57279;55.912;37.490;2022-11-11T12:01:41;99776.09;;;8.00;85.45
69955;BME280;57279;55.912;37.490;2022-11-11T12:07:39;99771.28;;;8.14;84.94
69955;BME280;57279;55.912;37.490;2022-11-11T12:10:50;99768.25;;;7.87;85.11
69955;BME280;57279;55.912;37.490;2022-11-11T12:13:56;99764.97;;;8.09;85.15
69955;BME280;57279;55.912;37.490;2022-11-11T12:19:58;99752.69;;;8.13;84.72
69955;BME280;57279;55.912;37.490;2022-11-11T12:22:52;99757.84;;;8.14;84.58
69955;BME280;57279;55.912;37.490;2022-11-11T12:26:00;99758.56;;;8.21;84.59
69955;BME280;57279;55.912;37.490;2022-11-11T12:29:13;99755.28;;;8.19;84.51
69955;BME280;57279;55.912;37.490;2022-11-11T12:35:18;99754.13;;;8.15;83.96
69955;BME280;57279;55.912;37.490;2022-11-11T12:38:37;99752.59;;;8.31;83.67
69955;BME280;57279;55.912;37.490;2022-11-11T12:44:34;99754.69;;;8.41;83.16
69955;BME280;57279;55.912;37.490;2022-11-11T12:50:59;99751.56;;;8.44;82.54
69955;BME280;57279;55.912;37.490;2022-11-11T12:54:12;99749.56;;;8.51;82.60
69955;BME280;57279;55.912;37.490;2022-11-11T12:57:14;99756.94;;;8.44;82.67
69955;BME280;57279;55.912;37.490;2022-11-11T13:00:15;99740.91;;;8.49;82.62
69955;BME280;57279;55.912;37.490;2022-11-11T13:06:35;99741.91;;;8.60;82.33
69955;BME280;57279;55.912;37.490;2022-11-11T13:15:24;99756.56;;;8.52;81.56
69955;BME280;57279;55.912;37.490;2022-11-11T13:18:21;99751.63;;;8.37;81.84
69955;BME280;57279;55.912;37.490;2022-11-11T13:21:14;99744.88;;;8.35;82.22
69955;BME280;57279;55.912;37.490;2022-11-11T13:24:01;99743.94;;;8.29;82.53
69955;BME280;57279;55.912;37.490;2022-11-11T13:27:15;99743.94;;;8.29;82.59
69955;BME280;57279;55.912;37.490;2022-11-11T13:33:04;99752.69;;;8.36;82.03
69955;BME280;57279;55.912;37.490;2022-11-11T13:35:55;99757.63;;;8.51;81.63
69955;BME280;57279;55.912;37.490;2022-11-11T13:38:46;99760.53;;;8.38;81.64
69955;BME280;57279;55.912;37.490;2022-11-11T13:41:37;99760.66;;;8.31;81.94
69955;BME280;57279;55.912;37.490;2022-11-11T13:44:30;99757.75;;;8.21;82.25
69955;BME280;57279;55.912;37.490;2022-11-11T13:47:26;99758.56;;;8.10;82.02
69955;BME280;57279;55.912;37.490;2022-11-11T13:50:22;99769.09;;;8.11;81.42
69955;BME280;57279;55.912;37.490;2022-11-11T13:53:34;99761.97;;;8.17;81.05
69955;BME280;57279;55.912;37.490;2022-11-11T13:56:37;99748.97;;;8.14;80.68
69955;BME280;57279;55.912;37.490;2022-11-11T13:59:37;99751.78;;;8.19;80.30
69955;BME280;57279;55.912;37.490;2022-11-11T14:02:31;99750.47;;;8.33;80.15
69955;BME280;57279;55.912;37.490;2022-11-11T14:05:18;99745.09;;;8.33;80.30
69955;BME280;57279;55.912;37.490;2022-11-11T14:08:02;99740.44;;;8.29;80.08
69955;BME280;57279;55.912;37.490;2022-11-11T14:10:51;99742.88;;;8.07;80.45
69955;BME280;57279;55.912;37.490;2022-11-11T14:13:38;99740.91;;;8.14;80.82
69955;BME280;57279;55.912;37.490;2022-11-11T14:25:20;99742.88;;;8.18;80.32
69955;BME280;57279;55.912;37.490;2022-11-11T14:40:12;99728.84;;;8.28;79.91
69955;BME280;57279;55.912;37.490;2022-11-11T14:43:35;99736.22;;;8.21;79.86
69955;BME280;57279;55.912;37.490;2022-11-11T14:46:19;99735.06;;;8.17;80.20
69955;BME280;57279;55.912;37.490;2022-11-11T14:49:04;99732.94;;;8.07;80.36
69955;BME280;57279;55.912;37.490;2022-11-11T14:51:54;99735.38;;;8.20;80.46
69955;BME280;57279;55.912;37.490;2022-11-11T14:55:49;99728.16;;;8.21;80.12
69955;BME280;57279;55.912;37.490;2022-11-11T14:58:10;99721.03;;;8.15;80.18
69955;BME280;57279;55.912;37.490;2022-11-11T15:01:07;99720.22;;;8.02;80.44
69955;BME280;57279;55.912;37.490;2022-11-11T15:03:55;99716.22;;;7.93;80.99
69955;BME280;57279;55.912;37.490;2022-11-11T15:06:59;99715.41;;;7.93;81.08
69955;BME280;57279;55.912;37.490;2022-11-11T15:10:26;99710.75;;;8.00;81.07
69955;BME280;57279;55.912;37.490;2022-11-11T15:25:55;99673.53;;;8.32;78.57
69955;BME280;57279;55.912;37.490;2022-11-11T15:34:45;99679.94;;;8.43;77.60
69955;BME280;57279;55.912;37.490;2022-11-11T15:37:33;99670.94;;;8.49;77.80
69955;BME280;57279;55.912;37.490;2022-11-11T15:40:25;99666.97;;;8.40;77.42
69955;BME280;57279;55.912;37.490;2022-11-11T15:43:19;99660.50;;;8.53;77.28
69955;BME280;57279;55.912;37.490;2022-11-11T15:46:04;99669.28;;;8.48;77.34
69955;BME280;57279;55.912;37.490;2022-11-11T15:48:49;99665.69;;;8.43;76.71
69955;BME280;57279;55.912;37.490;2022-11-11T15:51:35;99666.03;;;8.46;76.67
69955;BME280;57279;55.912;37.490;2022-11-11T15:54:20;99677.59;;;8.47;76.57
69955;BME280;57279;55.912;37.490;2022-11-11T15:57:30;99683.56;;;8.37;76.49
69955;BME280;57279;55.912;37.490;2022-11-11T16:03:30;99691.75;;;8.54;76.61
69955;BME280;57279;55.912;37.490;2022-11-11T16:06:17;99691.28;;;8.45;76.51
69955;BME280;57279;55.912;37.490;2022-11-11T16:09:02;99690.59;;;8.38;76.52
69955;BME280;57279;55.912;37.490;2022-11-11T16:11:46;99698.78;;;8.31;76.88
69955;BME280;57279;55.912;37.490;2022-11-11T16:14:37;99701.34;;;8.50;76.82
69955;BME280;57279;55.912;37.490;2022-11-11T16:17:29;99698.78;;;8.43;76.71
69955;BME280;57279;55.912;37.490;2022-11-11T16:20:26;99699.25;;;8.40;76.74
69955;BME280;57279;55.912;37.490;2022-11-11T16:23:16;99703.56;;;8.29;76.69
69955;BME280;57279;55.912;37.490;2022-11-11T16:26:01;99696.22;;;8.13;77.40
69955;BME280;57279;55.912;37.490;2022-11-11T16:28:52;99690.16;;;8.17;77.35
69955;BME280;57279;55.912;37.490;2022-11-11T16:31:38;99678.25;;;8.01;77.60
69955;BME280;57279;55.912;37.490;2022-11-11T16:37:14;99676.47;;;8.07;77.50
69955;BME280;57279;55.912;37.490;2022-11-11T16:40:27;99670.53;;;7.93;77.31
69955;BME280;57279;55.912;37.490;2022-11-11T16:43:23;99655.34;;;7.87;77.67
69955;BME280;57279;55.912;37.490;2022-11-11T16:46:13;99655.56;;;7.86;77.71